createdAt,value
2017-10-31T00:00:50.147Z,72.06
2017-10-31T00:05:52.912Z,72.17
2017-10-31T00:10:56.293Z,72.32
2017-10-31T00:15:59.095Z,72.16
2017-10-31T00:21:01.716Z,72.08
2017-10-31T00:26:04.424Z,72.31
2017-10-31T00:31:07.000Z,72.24
2017-10-31T00:36:09.752Z,72.23
2017-10-31T00:41:13.289Z,72.21
2017-10-31T00:46:16.791Z,72.53
2017-10-31T00:51:19.662Z,72.65
2017-10-31T00:56:22.922Z,72.78
2017-10-31T01:01:25.570Z,72.97
2017-10-31T01:06:28.130Z,73.21
2017-10-31T01:11:31.608Z,73.34
2017-10-31T01:16:34.340Z,73.57
2017-10-31T01:21:36.928Z,73.61
2017-10-31T01:26:39.653Z,73.78
2017-10-31T01:31:42.445Z,73.77
2017-10-31T01:36:45.186Z,73.51
2017-10-31T01:41:47.979Z,73.47
2017-10-31T01:46:50.848Z,73.31
2017-10-31T01:51:53.735Z,73.64
2017-10-31T01:56:56.509Z,73.51
2017-10-31T02:01:59.451Z,73.55
2017-10-31T02:07:02.244Z,73.28
2017-10-31T02:12:05.166Z,73.15
2017-10-31T02:17:08.758Z,73.31
2017-10-31T02:22:11.650Z,73.05
2017-10-31T02:27:14.504Z,73.06
2017-10-31T02:32:17.085Z,73.05
2017-10-31T02:37:35.389Z,72.96
2017-10-31T02:42:38.301Z,72.80
2017-10-31T02:47:41.293Z,72.99
2017-10-31T02:52:44.126Z,72.81
2017-10-31T02:57:47.168Z,72.74
2017-10-31T03:02:50.615Z,72.77
2017-10-31T03:07:53.512Z,72.42
2017-10-31T03:12:56.170Z,72.48
2017-10-31T03:17:59.048Z,72.27
2017-10-31T03:23:02.068Z,71.87
2017-10-31T03:28:05.085Z,72.01
2017-10-31T03:33:08.216Z,72.00
2017-10-31T03:38:10.271Z,72.04
2017-10-31T03:43:13.018Z,72.23
2017-10-31T03:48:15.121Z,72.45
2017-10-31T03:53:17.108Z,72.53
2017-10-31T03:58:19.878Z,72.73
2017-10-31T04:03:21.876Z,72.56
2017-10-31T04:08:23.882Z,72.24
2017-10-31T04:13:25.889Z,71.97
2017-10-31T04:18:27.835Z,72.10
2017-10-31T04:23:29.795Z,72.02
2017-10-31T04:28:31.759Z,72.23
2017-10-31T04:33:34.475Z,71.99
2017-10-31T04:38:38.012Z,71.77
2017-10-31T04:43:40.700Z,71.64
2017-10-31T04:48:42.719Z,71.78
2017-10-31T04:53:44.792Z,72.35
2017-10-31T04:58:46.786Z,72.26
2017-10-31T05:03:49.200Z,72.20
2017-10-31T05:08:51.165Z,72.22
2017-10-31T05:13:53.099Z,72.22
2017-10-31T05:18:54.987Z,72.26
2017-10-31T05:23:57.648Z,72.58
2017-10-31T05:28:59.565Z,72.92
2017-10-31T05:34:01.515Z,73.09
2017-10-31T05:39:04.296Z,73.11
2017-10-31T05:44:06.260Z,73.17
2017-10-31T05:49:08.511Z,73.44
2017-10-31T05:54:14.113Z,73.66
2017-10-31T05:59:20.590Z,73.47
2017-10-31T06:04:24.729Z,73.41
2017-10-31T06:09:29.023Z,73.43
2017-10-31T06:14:31.029Z,73.22
2017-10-31T06:19:32.957Z,73.14
2017-10-31T06:24:40.921Z,73.20
2017-10-31T06:29:49.548Z,73.00
2017-10-31T06:34:51.472Z,72.99
2017-10-31T06:39:53.465Z,72.63
2017-10-31T06:44:55.353Z,72.64
2017-10-31T06:49:57.302Z,72.62
2017-10-31T06:54:59.216Z,72.36
2017-10-31T07:00:01.205Z,72.39
2017-10-31T07:05:03.909Z,72.21
2017-10-31T07:10:05.842Z,72.00
2017-10-31T07:15:07.799Z,71.79
2017-10-31T07:20:09.724Z,71.72
2017-10-31T07:25:11.633Z,71.33
2017-10-31T07:30:14.348Z,71.04
2017-10-31T07:35:16.264Z,70.90
2017-10-31T07:40:18.896Z,70.67
2017-10-31T07:45:20.928Z,70.41
2017-10-31T07:50:23.176Z,69.81
2017-10-31T07:55:25.151Z,69.93
2017-10-31T08:00:29.127Z,69.74
2017-10-31T08:05:33.138Z,70.16
2017-10-31T08:10:35.910Z,69.72
2017-10-31T08:15:37.821Z,69.47
2017-10-31T08:20:40.552Z,68.75
2017-10-31T08:25:43.238Z,68.60
2017-10-31T08:30:45.768Z,68.35
2017-10-31T08:35:47.726Z,67.97
2017-10-31T08:40:49.701Z,68.19
2017-10-31T08:51:28.526Z,67.85
2017-10-31T08:56:31.299Z,67.13
2017-10-31T09:01:33.342Z,67.00
2017-10-31T09:06:35.277Z,66.94
2017-10-31T09:11:37.206Z,66.49
2017-10-31T09:16:39.186Z,66.40
2017-10-31T09:21:41.095Z,66.18
2017-10-31T09:26:43.002Z,65.48
2017-10-31T09:31:44.903Z,65.56
2017-10-31T09:36:46.850Z,65.28
2017-10-31T09:41:48.852Z,65.62
2017-10-31T09:46:50.734Z,65.15
2017-10-31T09:51:52.715Z,65.33
2017-10-31T09:56:54.765Z,65.48
2017-10-31T10:01:56.762Z,65.44
2017-10-31T10:06:58.675Z,65.11
2017-10-31T10:12:00.711Z,65.24
2017-10-31T10:17:03.443Z,64.11
2017-10-31T10:22:06.096Z,64.06
2017-10-31T10:27:08.015Z,63.96
2017-10-31T10:32:09.911Z,63.70
2017-10-31T10:37:11.812Z,63.37
2017-10-31T10:42:13.752Z,62.13
2017-10-31T10:47:15.730Z,61.41
2017-10-31T10:52:17.707Z,61.86
2017-10-31T10:57:19.638Z,61.40
2017-10-31T11:02:21.688Z,61.94
2017-10-31T11:07:24.384Z,62.69
2017-10-31T11:12:26.495Z,62.36
2017-10-31T11:17:28.460Z,62.51
2017-10-31T11:22:30.411Z,63.12
2017-10-31T11:27:32.367Z,63.11
2017-10-31T11:32:34.343Z,62.59
2017-10-31T11:37:36.280Z,62.74
2017-10-31T11:42:40.543Z,63.26
2017-10-31T11:47:42.468Z,63.59
2017-10-31T11:52:44.431Z,64.09
2017-10-31T11:57:46.353Z,64.23
2017-10-31T12:02:48.286Z,64.74
2017-10-31T12:07:50.275Z,64.95
2017-10-31T12:12:52.192Z,65.27
2017-10-31T12:17:54.111Z,65.30
2017-10-31T12:22:56.806Z,66.26
2017-10-31T12:27:58.732Z,66.05
2017-10-31T12:33:00.713Z,65.77
2017-10-31T12:38:02.727Z,65.21
2017-10-31T12:43:04.667Z,64.87
2017-10-31T12:48:06.633Z,65.27
2017-10-31T12:53:08.581Z,64.52
2017-10-31T12:58:10.563Z,65.74
2017-10-31T13:03:12.488Z,66.22
2017-10-31T13:08:14.472Z,66.06
2017-10-31T13:13:17.166Z,65.74
2017-10-31T13:18:19.136Z,65.71
2017-10-31T13:23:21.167Z,66.03
2017-10-31T13:28:23.913Z,66.53
2017-10-31T13:33:26.964Z,66.48
2017-10-31T13:38:29.929Z,66.49
2017-10-31T13:43:32.888Z,66.48
2017-10-31T13:48:35.100Z,66.59
2017-10-31T13:53:36.992Z,66.77
2017-10-31T13:58:39.131Z,66.45
2017-10-31T14:03:42.468Z,66.12
2017-10-31T14:08:45.951Z,66.55
2017-10-31T14:13:47.887Z,66.87
2017-10-31T14:18:50.436Z,65.94
2017-10-31T14:23:53.227Z,66.07
2017-10-31T14:28:55.175Z,65.98
2017-10-31T14:33:57.100Z,66.98
2017-10-31T14:38:59.064Z,66.45
2017-10-31T14:44:01.720Z,66.23
2017-10-31T14:49:03.690Z,65.88
2017-10-31T14:54:05.637Z,65.90
2017-10-31T14:59:07.595Z,65.44
2017-10-31T15:04:10.281Z,65.62
2017-10-31T15:09:12.184Z,65.46
2017-10-31T15:14:14.112Z,66.15
2017-10-31T15:19:16.061Z,65.79
2017-10-31T15:24:17.987Z,65.82
2017-10-31T15:29:19.889Z,65.75
2017-10-31T15:34:21.826Z,66.17
2017-10-31T15:39:24.484Z,65.89
2017-10-31T15:44:26.424Z,65.73
2017-10-31T15:49:28.356Z,66.14
2017-10-31T15:54:31.089Z,66.30
2017-10-31T15:59:33.735Z,66.23
2017-10-31T16:04:35.651Z,66.53
2017-10-31T16:09:37.556Z,67.06
2017-10-31T16:14:39.500Z,66.76
2017-10-31T16:19:42.230Z,66.65
2017-10-31T16:24:44.883Z,67.24
2017-10-31T16:29:46.804Z,66.69
2017-10-31T16:34:48.753Z,67.39
2017-10-31T16:39:51.409Z,67.36
2017-10-31T16:44:53.396Z,67.74
2017-10-31T16:49:55.315Z,67.71
2017-10-31T16:54:57.238Z,66.77
2017-10-31T16:59:59.146Z,67.45
2017-10-31T17:05:01.049Z,66.62
2017-10-31T17:10:03.080Z,66.79
2017-10-31T17:15:05.025Z,66.70
2017-10-31T17:20:06.942Z,66.61
2017-10-31T17:25:08.903Z,66.41
2017-10-31T17:30:11.704Z,66.74
2017-10-31T17:35:13.622Z,67.08
2017-10-31T17:40:15.558Z,66.43
2017-10-31T17:45:17.735Z,66.91
2017-10-31T17:50:19.816Z,67.09
2017-10-31T17:55:21.781Z,67.09
2017-10-31T18:00:23.844Z,67.34
2017-10-31T18:05:25.860Z,69.37
2017-10-31T18:10:28.516Z,69.73
2017-10-31T18:15:30.468Z,70.44
2017-10-31T18:20:32.419Z,71.98
2017-10-31T18:25:34.808Z,72.61
2017-10-31T18:30:42.455Z,72.94
2017-10-31T18:35:50.030Z,73.47
2017-10-31T18:40:53.009Z,73.59
2017-10-31T18:45:55.768Z,73.89
2017-10-31T18:50:59.961Z,74.01
2017-10-31T18:56:04.129Z,73.82
2017-10-31T19:01:07.888Z,73.55
2017-10-31T19:06:11.873Z,73.42
2017-10-31T19:11:18.629Z,72.63
2017-10-31T19:16:25.413Z,72.93
2017-10-31T19:21:28.503Z,72.93
2017-10-31T19:26:31.136Z,72.57
2017-10-31T19:31:33.784Z,72.80
2017-10-31T19:36:37.583Z,72.86
2017-10-31T19:41:44.930Z,72.81
2017-10-31T19:46:57.249Z,72.71
2017-10-31T19:52:05.680Z,73.18
2017-10-31T19:57:12.030Z,73.18
2017-10-31T20:02:19.645Z,72.94
2017-10-31T20:07:29.426Z,72.96
2017-10-31T20:12:39.601Z,72.79
2017-10-31T20:17:51.524Z,72.37
2017-10-31T20:22:54.595Z,71.64
2017-10-31T20:27:57.236Z,71.69
2017-10-31T20:33:00.285Z,71.74
2017-10-31T20:38:03.301Z,71.87
2017-10-31T20:43:06.896Z,71.60
2017-10-31T20:48:08.868Z,72.01
2017-10-31T20:53:14.899Z,72.23
2017-10-31T20:58:17.070Z,71.99
2017-10-31T21:03:21.055Z,72.71
2017-10-31T21:08:22.969Z,72.82
2017-10-31T21:13:25.076Z,73.16
2017-10-31T21:18:27.770Z,74.23
2017-10-31T21:23:30.473Z,74.79
2017-10-31T21:28:34.044Z,74.79
2017-10-31T21:33:36.582Z,75.05
2017-10-31T21:38:39.310Z,75.44
2017-10-31T21:43:42.174Z,75.14
2017-10-31T21:48:45.573Z,75.68
2017-10-31T21:53:48.129Z,75.87
2017-10-31T21:58:51.839Z,76.07
2017-10-31T22:03:53.800Z,76.11
2017-10-31T22:08:55.729Z,75.83
2017-10-31T22:13:57.642Z,75.97
2017-10-31T22:18:59.567Z,75.54
2017-10-31T22:24:01.602Z,75.42
2017-10-31T22:29:04.250Z,75.80
2017-10-31T22:34:06.315Z,75.58
2017-10-31T22:39:08.304Z,75.58
2017-10-31T22:44:10.193Z,75.48
2017-10-31T22:49:12.076Z,75.78
2017-10-31T22:54:13.981Z,75.67
2017-10-31T22:59:15.896Z,75.70
2017-10-31T23:04:17.781Z,76.14
2017-10-31T23:09:19.704Z,76.22
2017-10-31T23:14:21.643Z,76.86
2017-10-31T23:19:23.529Z,76.31
2017-10-31T23:24:25.547Z,77.01
2017-10-31T23:29:28.213Z,77.11
2017-10-31T23:34:30.755Z,76.79
2017-10-31T23:39:32.668Z,77.07
2017-10-31T23:44:34.592Z,76.84
2017-10-31T23:49:36.567Z,77.39
2017-10-31T23:54:38.551Z,77.38
2017-10-31T23:59:40.432Z,77.36
